Time;durP1;ratioP1;P1;durP2;ratioP2;P2;SDS_P1;SDS_P2;PMS_P1;PMS_P2;Temp;Humidity;BMP_temperature;BMP_pressure;BME280_temperature;BME280_humidity;BME280_pressure;Samples;Min_cycle;Max_cycle;Signal;HPM_P1;HPM_P2
2023/11/24 00:10:29;;;;;;;;;;;;;;;;;;;;;
2023/11/24 06:32:30;;;;;;;5.80;1.77;;;;;;;;;;5215160;22;20127;-92
2023/11/24 06:35:18;;;;;;;7.43;1.63;;;;;;;;;;5068302;28;20568;-89
2023/11/24 06:38:10;;;;;;;8.40;3.40;;;;;;;;;;5033555;28;20035;-86
2023/11/24 06:40:56;;;;;;;10.57;2.45;;;;;;;;;;5062817;28;20065;-86
2023/11/24 06:43:41;;;;;;;7.50;2.80;;;;;;;;;;5062819;28;20121;-87
2023/11/24 06:46:26;;;;;;;8.38;2.20;;;;;;;;;;5063032;28;20020;-87
2023/11/24 06:49:11;;;;;;;7.60;1.92;;;;;;;;;;5057303;28;20473;-87
2023/11/24 06:51:57;;;;;;;7.53;2.88;;;;;;;;;;5062211;28;20024;-86
2023/11/24 06:54:42;;;;;;;8.32;1.80;;;;;;;;;;5055636;28;20028;-86
2023/11/24 06:57:27;;;;;;;4.68;1.48;;;;;;;;;;5061586;28;20069;-85
2023/11/24 07:00:17;;;;;;;4.20;1.95;;;;;;;;;;5057007;28;20025;-87
2023/11/24 07:03:02;;;;;;;8.32;2.13;;;;;;;;;;5063789;28;20153;-82
2023/11/24 07:05:47;;;;;;;5.68;1.92;;;;;;;;;;5061619;28;20028;-88
2023/11/24 07:08:33;;;;;;;5.15;1.48;;;;;;;;;;5058499;28;20039;-89
2023/11/24 07:11:18;;;;;;;3.22;1.40;;;;;;;;;;5039042;28;20131;-88
2023/11/24 07:14:04;;;;;;;5.38;1.80;;;;;;;;;;5035252;28;20024;-87
2023/11/24 07:16:49;;;;;;;4.78;1.88;;;;;;;;;;5058577;28;20024;-87
2023/11/24 07:19:34;;;;;;;6.45;1.75;;;;;;;;;;5053972;28;20063;-89
2023/11/24 07:22:20;;;;;;;5.18;1.90;;;;;;;;;;5045087;28;20024;-85
2023/11/24 07:25:06;;;;;;;5.85;2.03;;;;;;;;;;5036924;28;20036;-84
2023/11/24 07:27:51;;;;;;;5.75;2.13;;;;;;;;;;5039730;28;20024;-82
2023/11/24 07:30:36;;;;;;;5.15;1.40;;;;;;;;;;5041604;28;20063;-83
2023/11/24 07:33:22;;;;;;;6.28;1.80;;;;;;;;;;5046067;28;20048;-85
2023/11/24 07:36:08;;;;;;;8.98;1.90;;;;;;;;;;5042025;28;20066;-90
2023/11/24 07:38:54;;;;;;;6.93;2.03;;;;;;;;;;5055826;28;20046;-88
2023/11/24 07:41:39;;;;;;;5.97;2.20;;;;;;;;;;5046089;28;20028;-87
2023/11/24 07:44:27;;;;;;;4.88;1.75;;;;;;;;;;5043830;28;20032;-88
2023/11/24 07:47:14;;;;;;;6.15;1.70;;;;;;;;;;5040816;28;20548;-90
2023/11/24 07:49:59;;;;;;;9.85;2.47;;;;;;;;;;5046604;28;20036;-89
2023/11/24 07:52:46;;;;;;;10.32;2.40;;;;;;;;;;5057992;28;20137;-90
2023/11/24 07:55:31;;;;;;;6.88;1.75;;;;;;;;;;5041671;28;20024;-88
2023/11/24 07:58:17;;;;;;;5.85;1.80;;;;;;;;;;5045820;28;20498;-89
2023/11/24 08:01:03;;;;;;;10.38;1.50;;;;;;;;;;5043650;28;20035;-85
2023/11/24 08:03:48;;;;;;;5.75;1.52;;;;;;;;;;5041657;28;20146;-85
2023/11/24 08:06:34;;;;;;;4.07;1.42;;;;;;;;;;5045593;28;20047;-88
2023/11/24 08:09:19;;;;;;;5.65;1.40;;;;;;;;;;5041818;28;20495;-86
2023/11/24 08:12:11;;;;;;;6.47;2.47;;;;;;;;;;5041647;28;20104;-86
2023/11/24 08:14:58;;;;;;;9.07;2.22;;;;;;;;;;5031595;28;20035;-85
2023/11/24 08:17:43;;;;;;;5.90;1.58;;;;;;;;;;5044172;28;20552;-88
2023/11/24 08:20:28;;;;;;;6.32;1.88;;;;;;;;;;5047589;28;20047;-87
2023/11/24 08:23:15;;;;;;;6.70;2.25;;;;;;;;;;5045557;28;20036;-89
2023/11/24 08:26:03;;;;;;;5.10;1.85;;;;;;;;;;5058637;28;20033;-90
2023/11/24 08:28:48;;;;;;;5.25;1.30;;;;;;;;;;5042944;28;20032;-88
2023/11/24 08:31:33;;;;;;;8.90;2.30;;;;;;;;;;5038107;28;20035;-86
2023/11/24 08:34:19;;;;;;;7.10;1.75;;;;;;;;;;5050845;28;21109;-88
2023/11/24 08:37:04;;;;;;;8.00;1.95;;;;;;;;;;5035209;28;20032;-86
2023/11/24 08:39:50;;;;;;;5.85;1.95;;;;;;;;;;5053659;28;20387;-86
2023/11/24 08:42:35;;;;;;;6.38;1.85;;;;;;;;;;5040264;28;20067;-84
2023/11/24 08:45:20;;;;;;;5.50;1.63;;;;;;;;;;5039801;28;20029;-85
2023/11/24 08:48:05;;;;;;;6.97;2.42;;;;;;;;;;5040238;28;20086;-85
2023/11/24 08:50:50;;;;;;;7.88;3.08;;;;;;;;;;5048164;28;20111;-85
2023/11/24 08:53:36;;;;;;;8.35;2.83;;;;;;;;;;5051314;28;20028;-86
2023/11/24 08:56:21;;;;;;;8.18;2.97;;;;;;;;;;5042932;28;20040;-85
2023/11/24 08:59:10;;;;;;;6.07;2.65;;;;;;;;;;5062454;28;20028;-84
2023/11/24 09:01:56;;;;;;;7.37;2.00;;;;;;;;;;5069373;28;20024;-87
2023/11/24 09:04:41;;;;;;;5.75;1.85;;;;;;;;;;5067932;28;20359;-85
2023/11/24 09:07:26;;;;;;;9.00;2.92;;;;;;;;;;5078728;28;20036;-85
2023/11/24 09:10:12;;;;;;;10.63;2.42;;;;;;;;;;5080625;28;20157;-88
2023/11/24 09:12:57;;;;;;;18.10;4.32;;;;;;;;;;5083425;28;20086;-84
2023/11/24 09:15:43;;;;;;;16.48;3.30;;;;;;;;;;5063821;28;20021;-87
2023/11/24 09:18:29;;;;;;;7.82;1.88;;;;;;;;;;5052756;28;20035;-86
2023/11/24 09:21:17;;;;;;;8.90;2.53;;;;;;;;;;5052873;28;20040;-87
2023/11/24 09:24:05;;;;;;;5.88;2.00;;;;;;;;;;5060571;28;20021;-85
2023/11/24 09:26:50;;;;;;;10.25;3.40;;;;;;;;;;5060557;28;20127;-84
2023/11/24 09:29:36;;;;;;;12.63;2.70;;;;;;;;;;5042086;28;20028;-85
2023/11/24 09:32:21;;;;;;;11.05;2.30;;;;;;;;;;5055282;28;20134;-87
2023/11/24 09:35:07;;;;;;;9.15;3.30;;;;;;;;;;5043035;28;20163;-87
2023/11/24 09:37:53;;;;;;;10.05;2.92;;;;;;;;;;5047126;28;20091;-87
2023/11/24 09:40:38;;;;;;;9.60;3.13;;;;;;;;;;5045261;28;20024;-86
2023/11/24 09:43:24;;;;;;;12.43;3.80;;;;;;;;;;5040860;28;20048;-89
2023/11/24 09:46:10;;;;;;;10.00;3.22;;;;;;;;;;5042374;28;20142;-84
2023/11/24 09:48:55;;;;;;;9.32;2.67;;;;;;;;;;5060347;28;20063;-84
2023/11/24 09:51:41;;;;;;;14.13;2.67;;;;;;;;;;5044910;28;20024;-86
2023/11/24 09:54:26;;;;;;;9.05;2.38;;;;;;;;;;5060408;28;20185;-86
2023/11/24 09:57:12;;;;;;;10.35;2.20;;;;;;;;;;5045520;28;20021;-86
2023/11/24 09:59:57;;;;;;;13.68;2.67;;;;;;;;;;5042028;28;20041;-86
2023/11/24 10:02:43;;;;;;;10.10;2.90;;;;;;;;;;5037550;28;20912;-87
2023/11/24 10:05:32;;;;;;;12.25;3.10;;;;;;;;;;5031399;28;20050;-85
2023/11/24 10:08:17;;;;;;;10.82;2.33;;;;;;;;;;5055673;28;20068;-93
2023/11/24 10:33:50;;;;;;;11.02;3.25;;;;;;;;;;5114354;27;20059;-92
2023/11/24 10:47:00;;;;;;;8.38;2.70;;;;;;;;;;5040394;28;20028;-92
2023/11/24 11:00:06;;;;;;;9.23;3.00;;;;;;;;;;4978689;28;20034;-90
2023/11/24 11:03:01;;;;;;;21.27;4.47;;;;;;;;;;5028447;28;20028;-91
2023/11/24 11:09:42;;;;;;;9.45;3.22;;;;;;;;;;5123884;22;20019;-91
2023/11/24 11:12:40;;;;;;;10.43;3.25;;;;;;;;;;5036548;28;20071;-91
2023/11/24 11:15:28;;;;;;;13.50;3.72;;;;;;;;;;5046441;28;20104;-87
2023/11/24 11:18:14;;;;;;;8.60;3.13;;;;;;;;;;5050511;28;20028;-84
2023/11/24 11:21:28;;;;;;;9.70;2.70;;;;;;;;;;5056308;28;20566;-90
2023/11/24 11:24:31;;;;;;;10.90;2.42;;;;;;;;;;5057119;28;20035;-89
2023/11/24 11:27:36;;;;;;;;;;;;;;;;;;;;;
2023/11/24 11:30:39;;;;;;;9.20;3.30;;;;;;;;;;5021103;28;20141;-90
2023/11/24 11:34:06;;;;;;;8.88;2.45;;;;;;;;;;5057839;28;20390;-89
2023/11/24 11:37:02;;;;;;;8.15;2.35;;;;;;;;;;5043828;28;20032;-88
2023/11/24 11:40:07;;;;;;;10.50;2.38;;;;;;;;;;5048803;28;20036;-89
2023/11/24 11:42:59;;;;;;;7.82;2.33;;;;;;;;;;5025594;28;20095;-89
2023/11/24 11:45:50;;;;;;;8.30;2.50;;;;;;;;;;5051743;28;20048;-89
2023/11/24 11:48:39;;;;;;;10.10;2.33;;;;;;;;;;5057312;28;20834;-89
2023/11/24 11:51:28;;;;;;;6.93;2.30;;;;;;;;;;5059320;28;20067;-89
2023/11/24 11:54:14;;;;;;;16.70;2.97;;;;;;;;;;5057768;28;20028;-87
2023/11/24 11:56:59;;;;;;;10.20;2.40;;;;;;;;;;5058524;28;20032;-86
2023/11/24 11:59:52;;;;;;;8.35;2.03;;;;;;;;;;5059215;28;20021;-89
2023/11/24 12:02:37;;;;;;;10.90;3.30;;;;;;;;;;5056496;28;20029;-86
2023/11/24 12:05:23;;;;;;;7.75;2.40;;;;;;;;;;5054018;28;20469;-86
2023/11/24 12:08:08;;;;;;;7.97;2.42;;;;;;;;;;5050072;28;20036;-86
2023/11/24 12:10:54;;;;;;;13.52;2.97;;;;;;;;;;5053379;28;20072;-87
2023/11/24 12:13:39;;;;;;;5.10;1.65;;;;;;;;;;5058170;28;20032;-86
2023/11/24 12:16:36;;;;;;;7.43;2.97;;;;;;;;;;5058630;28;20471;-92
2023/11/24 12:29:53;;;;;;;9.80;2.70;;;;;;;;;;4948323;29;20040;-95
2023/11/24 12:54:40;;;;;;;6.22;1.75;;;;;;;;;;5059460;28;20044;-89
2023/11/24 12:58:06;;;;;;;6.72;1.70;;;;;;;;;;5060625;28;20056;-91
2023/11/24 13:00:56;;;;;;;6.72;2.42;;;;;;;;;;5054124;28;20113;-90
2023/11/24 13:03:42;;;;;;;5.47;1.83;;;;;;;;;;5057046;28;20098;-89
2023/11/24 13:06:27;;;;;;;4.88;1.67;;;;;;;;;;5061612;28;20020;-89
2023/11/24 13:09:13;;;;;;;10.68;2.33;;;;;;;;;;5063139;28;20088;-89
2023/11/24 13:11:58;;;;;;;9.38;1.75;;;;;;;;;;5035116;28;20567;-88
2023/11/24 13:14:44;;;;;;;9.95;2.25;;;;;;;;;;5043214;28;20559;-87
2023/11/24 13:17:53;;;;;;;2.33;1.20;;;;;;;;;;5043137;28;20016;-90
2023/11/24 13:24:01;;;;;;;3.47;1.25;;;;;;;;;;5043126;28;20078;-86
2023/11/24 13:26:48;;;;;;;3.83;1.63;;;;;;;;;;5043017;28;20020;-86
2023/11/24 13:29:35;;;;;;;2.88;1.13;;;;;;;;;;5033015;28;20028;-91
2023/11/24 13:32:21;;;;;;;2.42;1.38;;;;;;;;;;5031210;28;20274;-89
2023/11/24 13:35:09;;;;;;;6.70;1.40;;;;;;;;;;5034980;28;20492;-87
2023/11/24 13:37:55;;;;;;;3.85;1.67;;;;;;;;;;5038905;28;20086;-86
2023/11/24 13:40:42;;;;;;;6.57;1.80;;;;;;;;;;5040158;28;20033;-84
2023/11/24 13:43:35;;;;;;;5.50;1.70;;;;;;;;;;5052681;28;20025;-90
2023/11/24 13:49:45;;;;;;;6.70;1.88;;;;;;;;;;5039092;28;20631;-87
2023/11/24 13:52:33;;;;;;;3.05;1.38;;;;;;;;;;5039567;28;20998;-86
2023/11/24 13:55:18;;;;;;;5.57;1.52;;;;;;;;;;5042322;28;20120;-88
2023/11/24 14:16:58;;;;;;;4.07;1.77;;;;;;;;;;5141078;22;20052;-90
2023/11/24 14:19:47;;;;;;;6.97;2.25;;;;;;;;;;5065207;28;20069;-88
2023/11/24 14:22:37;;;;;;;3.75;1.77;;;;;;;;;;5084445;28;20024;-90
2023/11/24 14:26:03;;;;;;;6.80;1.70;;;;;;;;;;5080189;28;20031;-90
2023/11/24 14:32:22;;;;;;;9.07;3.03;;;;;;;;;;5009911;28;20123;-83
2023/11/24 14:35:10;;;;;;;7.72;2.20;;;;;;;;;;5074534;28;20092;-84
2023/11/24 14:37:57;;;;;;;7.50;2.45;;;;;;;;;;5070328;28;20516;-82
2023/11/24 14:40:42;;;;;;;6.22;2.17;;;;;;;;;;5081289;28;20051;-85
2023/11/24 14:43:33;;;;;;;7.03;1.98;;;;;;;;;;5083740;28;20105;-89
2023/11/24 14:46:22;;;;;;;9.45;2.33;;;;;;;;;;5079928;28;20096;-90
2023/11/24 14:49:07;;;;;;;5.90;1.75;;;;;;;;;;5081674;28;20122;-89
2023/11/24 14:55:23;;;;;;;7.88;1.92;;;;;;;;;;5080239;28;20034;-91
2023/11/24 15:01:32;;;;;;;10.60;2.33;;;;;;;;;;5070682;28;20038;-90
2023/11/24 15:04:20;;;;;;;11.25;2.45;;;;;;;;;;5058379;28;20024;-91
2023/11/24 15:07:27;;;;;;;5.55;1.70;;;;;;;;;;5059033;28;20028;-92
2023/11/24 15:32:57;;;;;;;4.50;1.77;;;;;;;;;;5050192;28;20170;-82
2023/11/24 15:35:42;;;;;;;4.40;1.38;;;;;;;;;;5030276;28;20178;-85
2023/11/24 15:38:28;;;;;;;3.85;1.15;;;;;;;;;;5033971;28;20108;-85
2023/11/24 15:41:26;;;;;;;6.07;1.27;;;;;;;;;;5039534;28;20383;-87
2023/11/24 15:44:12;;;;;;;2.95;0.93;;;;;;;;;;5033373;28;20467;-89
2023/11/24 15:46:57;;;;;;;4.57;0.90;;;;;;;;;;5033079;28;20020;-86
2023/11/24 15:49:42;;;;;;;2.08;0.80;;;;;;;;;;5035584;28;20024;-90
2023/11/24 15:52:28;;;;;;;2.60;1.08;;;;;;;;;;5033707;28;20580;-87
2023/11/24 15:55:13;;;;;;;4.22;1.38;;;;;;;;;;5014196;28;20115;-84
2023/11/24 15:57:59;;;;;;;3.55;0.70;;;;;;;;;;5030235;28;20112;-83
2023/11/24 16:00:46;;;;;;;1.20;0.68;;;;;;;;;;5036869;28;20071;-83
2023/11/24 16:03:32;;;;;;;3.30;0.93;;;;;;;;;;5034610;28;20565;-83
2023/11/24 16:06:20;;;;;;;2.35;0.80;;;;;;;;;;5031812;28;20039;-84
2023/11/24 16:09:06;;;;;;;2.08;0.98;;;;;;;;;;5041283;28;20164;-82
2023/11/24 16:12:00;;;;;;;1.42;0.90;;;;;;;;;;5024971;28;21279;-82
2023/11/24 16:14:47;;;;;;;1.33;0.70;;;;;;;;;;5011979;28;20028;-85
2023/11/24 16:17:32;;;;;;;2.30;0.70;;;;;;;;;;5026349;28;20025;-85
2023/11/24 16:20:17;;;;;;;1.77;0.93;;;;;;;;;;5020889;28;20072;-85
2023/11/24 16:23:03;;;;;;;2.65;0.77;;;;;;;;;;5012972;28;20029;-80
2023/11/24 16:25:48;;;;;;;4.63;1.20;;;;;;;;;;5012357;28;20036;-83
2023/11/24 16:28:33;;;;;;;3.47;1.48;;;;;;;;;;5008614;28;20085;-84
2023/11/24 16:31:19;;;;;;;3.83;1.90;;;;;;;;;;5013225;28;20029;-83
2023/11/24 16:34:04;;;;;;;2.33;0.93;;;;;;;;;;5012575;28;20534;-87
2023/11/24 16:36:49;;;;;;;2.40;1.02;;;;;;;;;;5014049;28;20087;-90
2023/11/24 16:39:34;;;;;;;1.38;1.08;;;;;;;;;;5014702;28;20117;-89
2023/11/24 16:42:20;;;;;;;1.60;1.00;;;;;;;;;;5011227;28;20181;-89
2023/11/24 16:45:08;;;;;;;1.75;0.95;;;;;;;;;;5002250;28;20051;-85
2023/11/24 16:47:54;;;;;;;2.67;1.08;;;;;;;;;;5001872;28;20293;-85
2023/11/24 16:50:42;;;;;;;5.10;1.10;;;;;;;;;;5012765;28;20033;-85
2023/11/24 16:53:27;;;;;;;2.63;0.90;;;;;;;;;;5008070;28;20100;-86
2023/11/24 16:56:13;;;;;;;2.30;1.33;;;;;;;;;;5006607;28;20127;-84
2023/11/24 16:58:58;;;;;;;2.05;1.15;;;;;;;;;;5021059;28;20037;-79
2023/11/24 17:01:44;;;;;;;2.20;0.82;;;;;;;;;;5009298;28;20032;-84
2023/11/24 17:04:30;;;;;;;1.25;0.90;;;;;;;;;;5027910;28;20030;-85
2023/11/24 17:07:15;;;;;;;2.78;1.30;;;;;;;;;;5029190;28;20033;-86
2023/11/24 17:10:00;;;;;;;2.13;0.95;;;;;;;;;;5027057;28;20010;-85
2023/11/24 17:12:45;;;;;;;2.70;0.80;;;;;;;;;;5025865;28;20096;-84
2023/11/24 17:15:31;;;;;;;1.67;0.85;;;;;;;;;;5011284;28;20026;-85
2023/11/24 17:18:17;;;;;;;2.65;1.10;;;;;;;;;;5010445;28;20033;-84
2023/11/24 17:21:03;;;;;;;3.63;0.93;;;;;;;;;;5004893;28;20112;-84
2023/11/24 17:23:48;;;;;;;1.67;1.10;;;;;;;;;;5011472;28;20029;-85
2023/11/24 17:26:33;;;;;;;3.85;1.00;;;;;;;;;;5008399;28;20033;-85
2023/11/24 17:29:19;;;;;;;4.40;1.35;;;;;;;;;;5004556;28;20103;-84
2023/11/24 17:32:04;;;;;;;3.90;1.67;;;;;;;;;;5005300;28;20033;-85
2023/11/24 17:34:50;;;;;;;4.93;1.30;;;;;;;;;;5007907;28;20059;-84
2023/11/24 17:37:35;;;;;;;4.03;1.20;;;;;;;;;;5030156;28;20028;-84
2023/11/24 17:40:22;;;;;;;1.45;1.35;;;;;;;;;;5017841;28;20514;-83
2023/11/24 17:43:07;;;;;;;2.15;1.25;;;;;;;;;;5004193;28;20726;-85
2023/11/24 17:45:52;;;;;;;5.40;1.52;;;;;;;;;;4993247;28;20083;-84
2023/11/24 17:48:37;;;;;;;4.20;1.50;;;;;;;;;;5005229;28;20152;-84
2023/11/24 17:51:25;;;;;;;4.88;1.30;;;;;;;;;;5008271;28;20653;-84
2023/11/24 17:54:10;;;;;;;2.10;1.10;;;;;;;;;;5003729;28;20358;-85
2023/11/24 17:56:56;;;;;;;1.80;1.05;;;;;;;;;;5007337;28;20033;-85
2023/11/24 17:59:43;;;;;;;5.13;1.50;;;;;;;;;;5007109;28;20026;-84
2023/11/24 18:02:29;;;;;;;7.32;2.67;;;;;;;;;;5010056;28;20124;-84
2023/11/24 18:05:15;;;;;;;5.68;1.88;;;;;;;;;;5019550;28;20046;-84
2023/11/24 18:08:02;;;;;;;4.10;1.52;;;;;;;;;;5005546;28;20033;-85
2023/11/24 18:10:48;;;;;;;4.95;2.20;;;;;;;;;;5008597;28;20071;-85
2023/11/24 18:13:33;;;;;;;2.25;1.63;;;;;;;;;;5021798;28;20104;-85
2023/11/24 18:16:18;;;;;;;1.67;1.10;;;;;;;;;;5004277;28;20108;-85
2023/11/24 18:19:04;;;;;;;5.22;1.80;;;;;;;;;;4991919;28;20022;-85
2023/11/24 18:21:51;;;;;;;3.60;1.38;;;;;;;;;;5003520;28;20079;-85
2023/11/24 18:24:36;;;;;;;7.70;1.75;;;;;;;;;;4999663;28;20119;-85
2023/11/24 18:27:23;;;;;;;2.63;1.55;;;;;;;;;;4999954;28;20041;-85
2023/11/24 18:30:09;;;;;;;4.13;1.60;;;;;;;;;;5001496;28;20108;-85
2023/11/24 18:32:54;;;;;;;4.57;1.70;;;;;;;;;;5008514;28;20152;-85
2023/11/24 18:35:40;;;;;;;6.03;1.90;;;;;;;;;;5007082;28;20500;-82
2023/11/24 18:38:25;;;;;;;3.97;1.55;;;;;;;;;;5009061;28;20029;-84
2023/11/24 18:41:11;;;;;;;5.80;1.92;;;;;;;;;;5001989;28;20502;-83
2023/11/24 18:43:56;;;;;;;2.55;1.30;;;;;;;;;;4998746;28;20057;-84
2023/11/24 18:46:41;;;;;;;4.40;1.80;;;;;;;;;;5008401;28;20108;-84
2023/11/24 18:49:27;;;;;;;7.40;2.45;;;;;;;;;;5009747;28;20087;-85
2023/11/24 18:52:12;;;;;;;4.60;1.45;;;;;;;;;;4986590;28;20432;-84
2023/11/24 18:54:57;;;;;;;6.38;2.15;;;;;;;;;;5022241;28;20041;-84
2023/11/24 18:57:45;;;;;;;4.10;1.52;;;;;;;;;;5007892;28;20030;-85
2023/11/24 19:00:30;;;;;;;3.50;1.20;;;;;;;;;;5005840;28;20099;-84
2023/11/24 19:03:16;;;;;;;4.07;1.10;;;;;;;;;;4997064;28;20096;-85
2023/11/24 19:06:02;;;;;;;5.25;1.83;;;;;;;;;;5016181;28;20029;-85
2023/11/24 19:08:47;;;;;;;2.78;1.30;;;;;;;;;;4989441;28;20737;-85
2023/11/24 19:11:33;;;;;;;7.10;2.00;;;;;;;;;;5003597;28;20411;-85
2023/11/24 19:14:18;;;;;;;6.95;2.40;;;;;;;;;;4991002;28;20539;-86
2023/11/24 19:17:04;;;;;;;3.83;1.55;;;;;;;;;;5019544;28;20534;-85
2023/11/24 19:19:49;;;;;;;4.63;1.50;;;;;;;;;;5005280;28;20025;-85
2023/11/24 19:22:34;;;;;;;3.95;1.15;;;;;;;;;;5007765;28;20036;-85
2023/11/24 19:25:20;;;;;;;4.60;1.50;;;;;;;;;;5007427;28;20065;-85
2023/11/24 19:28:05;;;;;;;6.88;1.40;;;;;;;;;;5018384;28;20049;-85
2023/11/24 19:30:51;;;;;;;2.58;1.40;;;;;;;;;;5009760;28;20112;-85
2023/11/24 19:33:37;;;;;;;10.38;2.20;;;;;;;;;;5005936;28;20037;-85
2023/11/24 19:36:26;;;;;;;5.00;1.33;;;;;;;;;;5013945;28;20026;-84
2023/11/24 19:39:11;;;;;;;3.08;1.20;;;;;;;;;;5016790;28;20018;-84
2023/11/24 19:41:56;;;;;;;6.35;1.42;;;;;;;;;;5007088;28;20080;-84
2023/11/24 19:44:41;;;;;;;5.63;1.73;;;;;;;;;;5002937;28;20115;-85
2023/11/24 19:47:26;;;;;;;3.97;1.42;;;;;;;;;;5003069;28;20040;-84
2023/11/24 19:50:12;;;;;;;6.70;1.67;;;;;;;;;;4999010;28;20523;-84
2023/11/24 19:52:58;;;;;;;4.07;1.67;;;;;;;;;;5014212;28;20037;-85
2023/11/24 19:55:43;;;;;;;5.40;1.13;;;;;;;;;;4988135;28;20472;-85
2023/11/24 19:58:28;;;;;;;5.35;1.40;;;;;;;;;;4991384;28;20429;-84
2023/11/24 20:01:23;;;;;;;2.33;1.05;;;;;;;;;;5012405;28;20025;-86
2023/11/24 20:04:08;;;;;;;5.75;1.20;;;;;;;;;;5005799;28;20083;-86
2023/11/24 20:06:53;;;;;;;3.47;1.20;;;;;;;;;;5007591;28;20021;-86
2023/11/24 20:09:38;;;;;;;5.70;1.67;;;;;;;;;;5006417;28;20121;-85
2023/11/24 20:12:24;;;;;;;5.05;2.08;;;;;;;;;;5003729;28;20029;-85
2023/11/24 20:15:10;;;;;;;6.93;1.58;;;;;;;;;;5000972;28;20506;-85
2023/11/24 20:17:55;;;;;;;5.35;1.48;;;;;;;;;;4990354;28;20514;-85
2023/11/24 20:20:43;;;;;;;6.50;1.75;;;;;;;;;;5009176;28;20026;-85
2023/11/24 20:23:28;;;;;;;4.53;2.45;;;;;;;;;;5005946;28;20068;-86
2023/11/24 20:26:14;;;;;;;7.38;2.83;;;;;;;;;;5001327;28;20541;-86
2023/11/24 20:28:59;;;;;;;13.65;2.95;;;;;;;;;;5019606;28;20049;-84
2023/11/24 20:31:44;;;;;;;4.47;1.27;;;;;;;;;;5026092;28;20107;-84
2023/11/24 20:34:30;;;;;;;3.15;1.50;;;;;;;;;;5019815;28;20069;-85
2023/11/24 20:37:16;;;;;;;5.68;1.42;;;;;;;;;;5022577;28;20104;-85
2023/11/24 20:40:01;;;;;;;3.95;1.30;;;;;;;;;;5027745;28;20757;-85
2023/11/24 20:42:47;;;;;;;5.80;1.45;;;;;;;;;;5023123;28;20071;-84
2023/11/24 20:45:32;;;;;;;4.00;1.40;;;;;;;;;;5031158;28;20094;-85
2023/11/24 20:48:18;;;;;;;4.97;1.70;;;;;;;;;;5027991;28;20121;-85
2023/11/24 20:51:03;;;;;;;4.18;1.35;;;;;;;;;;5026681;28;20033;-85
2023/11/24 20:53:48;;;;;;;5.88;1.77;;;;;;;;;;5013566;28;20030;-85
2023/11/24 20:56:34;;;;;;;4.53;1.60;;;;;;;;;;5006988;28;20134;-85
2023/11/24 20:59:19;;;;;;;4.22;1.35;;;;;;;;;;5025189;28;20082;-85
2023/11/24 21:02:04;;;;;;;4.97;1.63;;;;;;;;;;5026179;28;20016;-85
2023/11/24 21:04:49;;;;;;;5.32;1.48;;;;;;;;;;5030118;28;20041;-86
2023/11/24 21:07:35;;;;;;;8.15;1.70;;;;;;;;;;5029748;28;20479;-85
2023/11/24 21:10:20;;;;;;;3.33;1.33;;;;;;;;;;5023232;28;20503;-85
2023/11/24 21:13:08;;;;;;;6.35;1.63;;;;;;;;;;5028179;28;20071;-86
2023/11/24 21:15:53;;;;;;;4.13;1.13;;;;;;;;;;5030018;28;20036;-85
2023/11/24 21:18:39;;;;;;;2.17;1.30;;;;;;;;;;5030528;28;20028;-85
2023/11/24 21:21:24;;;;;;;4.38;1.35;;;;;;;;;;5028214;28;20029;-84
2023/11/24 21:24:13;;;;;;;6.65;1.17;;;;;;;;;;5009251;28;20029;-85
2023/11/24 21:27:00;;;;;;;3.92;1.23;;;;;;;;;;5037324;28;20076;-84
2023/11/24 21:29:45;;;;;;;3.10;1.60;;;;;;;;;;5004383;28;20080;-86
2023/11/24 21:32:30;;;;;;;5.35;2.15;;;;;;;;;;5007978;28;20040;-86
2023/11/24 21:35:16;;;;;;;6.88;2.38;;;;;;;;;;5000356;28;20037;-85
2023/11/24 21:38:03;;;;;;;7.22;1.70;;;;;;;;;;5002984;28;20564;-86
2023/11/24 21:40:50;;;;;;;3.83;1.98;;;;;;;;;;5006421;28;20033;-84
2023/11/24 21:43:35;;;;;;;7.00;1.80;;;;;;;;;;5006284;28;20397;-83
2023/11/24 21:46:21;;;;;;;5.50;1.10;;;;;;;;;;5008082;28;20037;-84
2023/11/24 21:49:06;;;;;;;5.28;1.67;;;;;;;;;;4993569;28;20025;-85
2023/11/24 21:51:51;;;;;;;5.75;1.85;;;;;;;;;;4996625;28;20034;-85
2023/11/24 21:54:37;;;;;;;5.28;1.27;;;;;;;;;;5010476;28;20128;-85
2023/11/24 21:57:22;;;;;;;7.82;1.95;;;;;;;;;;5021659;28;20542;-88
2023/11/24 22:00:08;;;;;;;3.70;1.20;;;;;;;;;;5000517;28;20034;-83
2023/11/24 22:02:54;;;;;;;5.07;1.33;;;;;;;;;;5008546;28;20028;-89
2023/11/24 22:05:40;;;;;;;3.08;1.25;;;;;;;;;;4997585;28;20786;-85
2023/11/24 22:08:25;;;;;;;4.32;1.40;;;;;;;;;;5009502;28;20462;-85
2023/11/24 22:11:10;;;;;;;2.97;1.33;;;;;;;;;;4998402;28;20045;-88
2023/11/24 22:13:58;;;;;;;2.97;1.85;;;;;;;;;;5008211;28;20029;-88
2023/11/24 22:16:44;;;;;;;7.65;1.67;;;;;;;;;;5022497;28;20033;-87
2023/11/24 22:19:29;;;;;;;8.07;1.20;;;;;;;;;;5010226;28;20032;-87
2023/11/24 22:22:14;;;;;;;7.32;1.40;;;;;;;;;;5022510;28;20259;-88
2023/11/24 22:25:00;;;;;;;3.80;1.63;;;;;;;;;;4991081;28;20476;-88
2023/11/24 22:27:45;;;;;;;2.55;1.05;;;;;;;;;;5021866;28;20076;-86
2023/11/24 22:30:31;;;;;;;6.32;1.60;;;;;;;;;;4992346;28;20068;-84
2023/11/24 22:33:22;;;;;;;4.65;1.80;;;;;;;;;;5002791;28;20037;-87
2023/11/24 22:36:07;;;;;;;6.90;1.40;;;;;;;;;;5016586;28;20025;-87
2023/11/24 22:38:53;;;;;;;7.70;1.40;;;;;;;;;;5010727;28;20030;-87
2023/11/24 22:41:38;;;;;;;3.95;1.35;;;;;;;;;;5009892;28;20383;-87
2023/11/24 22:44:23;;;;;;;2.63;0.98;;;;;;;;;;5007073;28;20033;-87
2023/11/24 22:47:08;;;;;;;9.35;1.50;;;;;;;;;;4999236;28;20047;-88
2023/11/24 22:49:54;;;;;;;3.70;1.20;;;;;;;;;;5003568;28;20033;-88
2023/11/24 22:52:39;;;;;;;2.20;0.90;;;;;;;;;;5010853;28;20120;-88
2023/11/24 22:55:24;;;;;;;1.15;0.85;;;;;;;;;;5003942;28;20032;-88
2023/11/24 22:58:10;;;;;;;2.58;0.95;;;;;;;;;;5007732;28;20021;-87
2023/11/24 23:00:59;;;;;;;2.90;0.95;;;;;;;;;;5003603;28;20029;-87
2023/11/24 23:03:44;;;;;;;3.83;1.23;;;;;;;;;;5002548;28;20025;-88
2023/11/24 23:06:29;;;;;;;1.42;1.00;;;;;;;;;;5020726;28;20048;-87
2023/11/24 23:09:19;;;;;;;3.60;1.13;;;;;;;;;;5002699;28;20045;-87
2023/11/24 23:12:09;;;;;;;4.20;1.20;;;;;;;;;;5003527;28;20059;-88
2023/11/24 23:14:54;;;;;;;2.08;1.00;;;;;;;;;;5010473;28;20036;-88
2023/11/24 23:17:39;;;;;;;3.92;1.40;;;;;;;;;;5009388;28;20062;-88
2023/11/24 23:20:25;;;;;;;4.25;1.42;;;;;;;;;;5008967;28;20108;-87
2023/11/24 23:23:10;;;;;;;6.38;1.23;;;;;;;;;;4999609;28;20091;-87
2023/11/24 23:25:55;;;;;;;2.10;0.90;;;;;;;;;;5024920;28;20033;-87
2023/11/24 23:28:40;;;;;;;3.85;1.33;;;;;;;;;;5025483;28;20463;-87
2023/11/24 23:31:26;;;;;;;6.40;1.20;;;;;;;;;;5024630;28;20025;-88
2023/11/24 23:34:11;;;;;;;3.85;1.23;;;;;;;;;;5027850;28;20075;-87
2023/11/24 23:36:56;;;;;;;3.17;1.15;;;;;;;;;;5022793;28;20041;-87
2023/11/24 23:39:43;;;;;;;2.63;1.23;;;;;;;;;;5021468;28;20653;-89
2023/11/24 23:42:30;;;;;;;6.85;1.83;;;;;;;;;;5030620;28;20028;-87
2023/11/24 23:45:16;;;;;;;6.38;1.38;;;;;;;;;;5026811;28;20033;-87
2023/11/24 23:48:01;;;;;;;4.93;1.30;;;;;;;;;;5023237;28;20013;-87
2023/11/24 23:50:46;;;;;;;5.47;1.20;;;;;;;;;;5026659;28;20023;-87
2023/11/24 23:53:31;;;;;;;4.38;1.42;;;;;;;;;;5026465;28;20064;-88
2023/11/24 23:56:16;;;;;;;3.15;0.93;;;;;;;;;;5025043;28;20029;-88
2023/11/24 23:59:02;;;;;;;3.55;1.25;;;;;;;;;;5024541;28;20082;-86
